sensor_id;sensor_type;location;lat;lon;timestamp;temperature;humidity
15394;DHT22;7795;47.986;11.868;2023-09-19T00:01:06;19.00;79.70
15394;DHT22;7795;47.986;11.868;2023-09-19T00:03:35;19.00;79.80
15394;DHT22;7795;47.986;11.868;2023-09-19T00:06:04;18.90;79.90
15394;DHT22;7795;47.986;11.868;2023-09-19T00:08:30;18.90;79.90
15394;DHT22;7795;47.986;11.868;2023-09-19T00:10:56;18.90;80.70
15394;DHT22;7795;47.986;11.868;2023-09-19T00:13:31;18.90;80.10
15394;DHT22;7795;47.986;11.868;2023-09-19T00:15:57;18.80;80.10
15394;DHT22;7795;47.986;11.868;2023-09-19T00:18:25;18.80;80.20
15394;DHT22;7795;47.986;11.868;2023-09-19T00:20:58;18.80;80.30
15394;DHT22;7795;47.986;11.868;2023-09-19T00:23:24;18.80;80.60
15394;DHT22;7795;47.986;11.868;2023-09-19T00:25:50;18.80;80.50
15394;DHT22;7795;47.986;11.868;2023-09-19T00:28:16;18.80;80.60
15394;DHT22;7795;47.986;11.868;2023-09-19T00:30:44;18.80;80.60
15394;DHT22;7795;47.986;11.868;2023-09-19T00:33:10;18.80;80.60
15394;DHT22;7795;47.986;11.868;2023-09-19T00:35:37;18.80;80.70
15394;DHT22;7795;47.986;11.868;2023-09-19T00:38:04;18.80;80.60
15394;DHT22;7795;47.986;11.868;2023-09-19T00:40:32;18.80;80.70
15394;DHT22;7795;47.986;11.868;2023-09-19T00:42:58;18.80;80.60
15394;DHT22;7795;47.986;11.868;2023-09-19T00:45:25;18.70;81.30
15394;DHT22;7795;47.986;11.868;2023-09-19T00:47:51;18.80;80.70
15394;DHT22;7795;47.986;11.868;2023-09-19T00:50:18;18.80;80.70
15394;DHT22;7795;47.986;11.868;2023-09-19T00:52:46;18.80;80.70
15394;DHT22;7795;47.986;11.868;2023-09-19T00:55:14;18.80;80.80
15394;DHT22;7795;47.986;11.868;2023-09-19T00:57:41;18.80;80.90
15394;DHT22;7795;47.986;11.868;2023-09-19T01:00:08;18.80;80.90
15394;DHT22;7795;47.986;11.868;2023-09-19T01:02:41;18.80;80.90
15394;DHT22;7795;47.986;11.868;2023-09-19T01:05:08;18.80;80.80
15394;DHT22;7795;47.986;11.868;2023-09-19T01:07:35;18.80;80.80
15394;DHT22;7795;47.986;11.868;2023-09-19T01:10:02;18.80;80.90
15394;DHT22;7795;47.986;11.868;2023-09-19T01:12:39;18.80;81.00
15394;DHT22;7795;47.986;11.868;2023-09-19T01:15:15;18.80;81.20
15394;DHT22;7795;47.986;11.868;2023-09-19T01:17:51;18.80;81.10
15394;DHT22;7795;47.986;11.868;2023-09-19T01:20:33;18.80;81.00
15394;DHT22;7795;47.986;11.868;2023-09-19T01:23:11;18.80;81.30
15394;DHT22;7795;47.986;11.868;2023-09-19T01:26:11;18.80;81.90
15394;DHT22;7795;47.986;11.868;2023-09-19T01:28:53;18.80;81.30
15394;DHT22;7795;47.986;11.868;2023-09-19T01:31:25;18.80;81.30
15394;DHT22;7795;47.986;11.868;2023-09-19T01:33:55;18.80;81.10
15394;DHT22;7795;47.986;11.868;2023-09-19T01:36:26;18.80;81.10
15394;DHT22;7795;47.986;11.868;2023-09-19T01:38:52;18.80;81.90
15394;DHT22;7795;47.986;11.868;2023-09-19T01:41:29;18.80;81.20
15394;DHT22;7795;47.986;11.868;2023-09-19T01:44:00;18.80;81.40
15394;DHT22;7795;47.986;11.868;2023-09-19T01:46:34;18.80;81.20
15394;DHT22;7795;47.986;11.868;2023-09-19T01:49:15;18.80;81.20
15394;DHT22;7795;47.986;11.868;2023-09-19T01:51:48;18.90;81.00
15394;DHT22;7795;47.986;11.868;2023-09-19T01:54:25;18.90;80.80
15394;DHT22;7795;47.986;11.868;2023-09-19T01:56:57;18.90;80.80
15394;DHT22;7795;47.986;11.868;2023-09-19T01:59:34;18.90;80.60
15394;DHT22;7795;47.986;11.868;2023-09-19T02:02:03;18.90;80.50
15394;DHT22;7795;47.986;11.868;2023-09-19T02:04:32;18.90;80.40
15394;DHT22;7795;47.986;11.868;2023-09-19T02:06:58;18.90;80.30
15394;DHT22;7795;47.986;11.868;2023-09-19T02:09:24;18.90;80.20
15394;DHT22;7795;47.986;11.868;2023-09-19T02:11:51;19.00;80.10
15394;DHT22;7795;47.986;11.868;2023-09-19T02:14:16;19.00;80.00
15394;DHT22;7795;47.986;11.868;2023-09-19T02:16:42;19.00;80.10
15394;DHT22;7795;47.986;11.868;2023-09-19T02:19:09;19.00;80.20
15394;DHT22;7795;47.986;11.868;2023-09-19T02:21:35;19.10;80.40
15394;DHT22;7795;47.986;11.868;2023-09-19T02:24:01;19.10;80.50
15394;DHT22;7795;47.986;11.868;2023-09-19T02:26:28;19.10;80.50
15394;DHT22;7795;47.986;11.868;2023-09-19T02:28:54;19.10;80.20
15394;DHT22;7795;47.986;11.868;2023-09-19T02:31:20;19.10;80.30
15394;DHT22;7795;47.986;11.868;2023-09-19T02:33:45;19.10;80.50
15394;DHT22;7795;47.986;11.868;2023-09-19T02:36:13;19.10;80.60
15394;DHT22;7795;47.986;11.868;2023-09-19T02:38:42;19.20;80.60
15394;DHT22;7795;47.986;11.868;2023-09-19T02:41:08;19.20;80.50
15394;DHT22;7795;47.986;11.868;2023-09-19T02:43:34;19.30;80.60
15394;DHT22;7795;47.986;11.868;2023-09-19T02:46:02;19.20;80.60
15394;DHT22;7795;47.986;11.868;2023-09-19T02:48:28;19.30;80.60
15394;DHT22;7795;47.986;11.868;2023-09-19T02:50:55;19.30;80.70
15394;DHT22;7795;47.986;11.868;2023-09-19T02:53:22;19.30;80.60
15394;DHT22;7795;47.986;11.868;2023-09-19T02:55:49;19.30;80.70
15394;DHT22;7795;47.986;11.868;2023-09-19T02:58:19;19.30;81.50
15394;DHT22;7795;47.986;11.868;2023-09-19T03:00:45;19.30;80.70
15394;DHT22;7795;47.986;11.868;2023-09-19T03:03:15;19.30;80.70
15394;DHT22;7795;47.986;11.868;2023-09-19T03:05:44;19.30;80.70
15394;DHT22;7795;47.986;11.868;2023-09-19T03:08:12;19.30;80.80
15394;DHT22;7795;47.986;11.868;2023-09-19T03:10:41;19.30;80.80
15394;DHT22;7795;47.986;11.868;2023-09-19T03:13:07;19.30;80.90
15394;DHT22;7795;47.986;11.868;2023-09-19T03:15:35;19.30;80.90
15394;DHT22;7795;47.986;11.868;2023-09-19T03:18:04;19.30;80.90
15394;DHT22;7795;47.986;11.868;2023-09-19T03:20:30;19.30;80.90
15394;DHT22;7795;47.986;11.868;2023-09-19T03:22:56;19.30;80.90
15394;DHT22;7795;47.986;11.868;2023-09-19T03:25:23;19.20;80.90
15394;DHT22;7795;47.986;11.868;2023-09-19T03:27:50;19.20;81.00
15394;DHT22;7795;47.986;11.868;2023-09-19T03:30:16;19.20;81.10
15394;DHT22;7795;47.986;11.868;2023-09-19T03:32:45;19.20;81.00
15394;DHT22;7795;47.986;11.868;2023-09-19T03:35:12;19.20;80.90
15394;DHT22;7795;47.986;11.868;2023-09-19T03:37:40;19.20;80.70
15394;DHT22;7795;47.986;11.868;2023-09-19T03:40:06;19.20;80.70
15394;DHT22;7795;47.986;11.868;2023-09-19T03:42:33;19.20;80.90
15394;DHT22;7795;47.986;11.868;2023-09-19T03:45:03;19.20;80.80
15394;DHT22;7795;47.986;11.868;2023-09-19T03:47:29;19.20;80.70
15394;DHT22;7795;47.986;11.868;2023-09-19T03:49:54;19.20;80.70
15394;DHT22;7795;47.986;11.868;2023-09-19T03:52:20;19.20;80.70
15394;DHT22;7795;47.986;11.868;2023-09-19T03:54:46;19.20;80.70
15394;DHT22;7795;47.986;11.868;2023-09-19T03:57:12;19.20;80.60
15394;DHT22;7795;47.986;11.868;2023-09-19T03:59:41;19.20;80.60
15394;DHT22;7795;47.986;11.868;2023-09-19T04:02:09;19.10;80.60
15394;DHT22;7795;47.986;11.868;2023-09-19T04:04:47;19.10;80.60
15394;DHT22;7795;47.986;11.868;2023-09-19T04:07:13;19.10;80.50
15394;DHT22;7795;47.986;11.868;2023-09-19T04:09:38;19.10;80.50
15394;DHT22;7795;47.986;11.868;2023-09-19T04:12:05;19.10;80.90
15394;DHT22;7795;47.986;11.868;2023-09-19T04:14:31;19.10;80.60
15394;DHT22;7795;47.986;11.868;2023-09-19T04:16:57;19.10;80.60
15394;DHT22;7795;47.986;11.868;2023-09-19T04:19:24;19.10;80.60
15394;DHT22;7795;47.986;11.868;2023-09-19T04:21:50;19.10;81.40
15394;DHT22;7795;47.986;11.868;2023-09-19T04:24:15;19.10;80.60
15394;DHT22;7795;47.986;11.868;2023-09-19T04:26:41;19.10;80.70
15394;DHT22;7795;47.986;11.868;2023-09-19T04:29:08;19.00;80.60
15394;DHT22;7795;47.986;11.868;2023-09-19T04:31:36;19.00;80.60
15394;DHT22;7795;47.986;11.868;2023-09-19T04:34:03;19.00;80.70
15394;DHT22;7795;47.986;11.868;2023-09-19T04:36:31;19.00;80.70
15394;DHT22;7795;47.986;11.868;2023-09-19T04:38:56;19.00;80.60
15394;DHT22;7795;47.986;11.868;2023-09-19T04:41:23;19.00;80.70
15394;DHT22;7795;47.986;11.868;2023-09-19T04:43:50;19.00;80.70
15394;DHT22;7795;47.986;11.868;2023-09-19T04:46:16;19.00;80.70
15394;DHT22;7795;47.986;11.868;2023-09-19T04:48:43;19.00;80.80
15394;DHT22;7795;47.986;11.868;2023-09-19T04:51:09;19.00;80.90
15394;DHT22;7795;47.986;11.868;2023-09-19T04:53:37;19.00;80.90
15394;DHT22;7795;47.986;11.868;2023-09-19T04:56:03;19.00;80.90
15394;DHT22;7795;47.986;11.868;2023-09-19T04:58:29;19.00;80.80
15394;DHT22;7795;47.986;11.868;2023-09-19T05:00:55;19.00;80.80
15394;DHT22;7795;47.986;11.868;2023-09-19T05:03:21;19.00;80.80
15394;DHT22;7795;47.986;11.868;2023-09-19T05:05:48;19.00;80.80
15394;DHT22;7795;47.986;11.868;2023-09-19T05:08:14;19.00;80.80
15394;DHT22;7795;47.986;11.868;2023-09-19T05:10:41;19.00;80.80
15394;DHT22;7795;47.986;11.868;2023-09-19T05:13:07;18.90;80.70
15394;DHT22;7795;47.986;11.868;2023-09-19T05:15:33;18.90;80.70
15394;DHT22;7795;47.986;11.868;2023-09-19T05:18:01;18.90;80.80
15394;DHT22;7795;47.986;11.868;2023-09-19T05:20:26;18.90;80.80
15394;DHT22;7795;47.986;11.868;2023-09-19T05:23:00;18.90;80.80
15394;DHT22;7795;47.986;11.868;2023-09-19T05:25:28;18.90;80.90
15394;DHT22;7795;47.986;11.868;2023-09-19T05:27:57;18.90;80.80
15394;DHT22;7795;47.986;11.868;2023-09-19T05:30:23;18.90;80.90
15394;DHT22;7795;47.986;11.868;2023-09-19T05:32:49;18.90;80.90
15394;DHT22;7795;47.986;11.868;2023-09-19T05:35:14;18.90;80.90
15394;DHT22;7795;47.986;11.868;2023-09-19T05:37:40;18.90;80.80
15394;DHT22;7795;47.986;11.868;2023-09-19T05:40:07;18.90;80.90
15394;DHT22;7795;47.986;11.868;2023-09-19T05:42:35;18.90;80.90
15394;DHT22;7795;47.986;11.868;2023-09-19T05:45:02;18.90;81.00
15394;DHT22;7795;47.986;11.868;2023-09-19T05:47:28;18.90;81.00
15394;DHT22;7795;47.986;11.868;2023-09-19T05:49:54;18.90;80.90
15394;DHT22;7795;47.986;11.868;2023-09-19T05:52:20;18.90;80.90
15394;DHT22;7795;47.986;11.868;2023-09-19T05:54:47;19.00;81.00
15394;DHT22;7795;47.986;11.868;2023-09-19T05:57:15;19.00;80.90
15394;DHT22;7795;47.986;11.868;2023-09-19T05:59:40;19.00;80.90
15394;DHT22;7795;47.986;11.868;2023-09-19T06:02:09;19.00;80.80
15394;DHT22;7795;47.986;11.868;2023-09-19T06:04:36;19.10;80.70
15394;DHT22;7795;47.986;11.868;2023-09-19T06:07:06;19.10;81.30
15394;DHT22;7795;47.986;11.868;2023-09-19T06:09:32;19.10;80.50
15394;DHT22;7795;47.986;11.868;2023-09-19T06:11:58;19.10;80.50
15394;DHT22;7795;47.986;11.868;2023-09-19T06:14:24;19.10;80.30
15394;DHT22;7795;47.986;11.868;2023-09-19T06:16:50;19.20;80.30
15394;DHT22;7795;47.986;11.868;2023-09-19T06:19:17;19.20;80.20
15394;DHT22;7795;47.986;11.868;2023-09-19T06:21:42;19.20;80.20
15394;DHT22;7795;47.986;11.868;2023-09-19T06:24:10;19.20;80.10
15394;DHT22;7795;47.986;11.868;2023-09-19T06:26:37;19.30;80.20
15394;DHT22;7795;47.986;11.868;2023-09-19T06:29:02;19.30;80.30
15394;DHT22;7795;47.986;11.868;2023-09-19T06:31:29;19.30;80.30
15394;DHT22;7795;47.986;11.868;2023-09-19T06:33:56;19.40;80.40
15394;DHT22;7795;47.986;11.868;2023-09-19T06:36:23;19.40;80.30
15394;DHT22;7795;47.986;11.868;2023-09-19T06:38:49;19.50;80.50
15394;DHT22;7795;47.986;11.868;2023-09-19T06:41:16;19.50;80.50
15394;DHT22;7795;47.986;11.868;2023-09-19T06:43:42;19.60;80.40
15394;DHT22;7795;47.986;11.868;2023-09-19T06:46:09;19.60;80.20
15394;DHT22;7795;47.986;11.868;2023-09-19T06:48:36;19.70;80.90
15394;DHT22;7795;47.986;11.868;2023-09-19T06:51:02;19.80;80.10
15394;DHT22;7795;47.986;11.868;2023-09-19T06:53:31;19.80;79.90
15394;DHT22;7795;47.986;11.868;2023-09-19T06:55:57;19.90;79.70
15394;DHT22;7795;47.986;11.868;2023-09-19T06:58:23;19.90;79.60
15394;DHT22;7795;47.986;11.868;2023-09-19T07:00:49;20.00;79.50
15394;DHT22;7795;47.986;11.868;2023-09-19T07:03:15;20.10;79.40
15394;DHT22;7795;47.986;11.868;2023-09-19T07:05:44;20.10;79.30
15394;DHT22;7795;47.986;11.868;2023-09-19T07:08:10;20.10;79.10
15394;DHT22;7795;47.986;11.868;2023-09-19T07:10:39;20.20;78.80
15394;DHT22;7795;47.986;11.868;2023-09-19T07:13:07;20.20;78.80
15394;DHT22;7795;47.986;11.868;2023-09-19T07:15:38;20.20;78.80
15394;DHT22;7795;47.986;11.868;2023-09-19T07:18:07;20.30;78.70
15394;DHT22;7795;47.986;11.868;2023-09-19T07:20:36;20.30;78.50
15394;DHT22;7795;47.986;11.868;2023-09-19T07:23:04;20.40;78.40
15394;DHT22;7795;47.986;11.868;2023-09-19T07:25:30;20.40;78.30
15394;DHT22;7795;47.986;11.868;2023-09-19T07:27:58;20.50;78.10
15394;DHT22;7795;47.986;11.868;2023-09-19T07:30:26;20.50;77.80
15394;DHT22;7795;47.986;11.868;2023-09-19T07:32:52;20.50;77.60
15394;DHT22;7795;47.986;11.868;2023-09-19T07:35:18;20.60;77.50
15394;DHT22;7795;47.986;11.868;2023-09-19T07:37:47;20.60;77.50
15394;DHT22;7795;47.986;11.868;2023-09-19T07:40:14;20.70;77.80
15394;DHT22;7795;47.986;11.868;2023-09-19T07:42:40;20.70;77.80
15394;DHT22;7795;47.986;11.868;2023-09-19T07:45:08;20.80;77.40
15394;DHT22;7795;47.986;11.868;2023-09-19T07:47:35;20.80;77.00
15394;DHT22;7795;47.986;11.868;2023-09-19T07:50:01;20.90;77.10
15394;DHT22;7795;47.986;11.868;2023-09-19T07:52:28;20.90;77.10
15394;DHT22;7795;47.986;11.868;2023-09-19T07:54:54;21.00;77.10
15394;DHT22;7795;47.986;11.868;2023-09-19T07:57:22;21.10;77.10
15394;DHT22;7795;47.986;11.868;2023-09-19T07:59:48;21.10;77.00
15394;DHT22;7795;47.986;11.868;2023-09-19T08:02:15;21.20;76.90
15394;DHT22;7795;47.986;11.868;2023-09-19T08:04:42;21.20;76.60
15394;DHT22;7795;47.986;11.868;2023-09-19T08:07:07;21.30;76.60
15394;DHT22;7795;47.986;11.868;2023-09-19T08:09:34;21.30;76.40
15394;DHT22;7795;47.986;11.868;2023-09-19T08:12:00;21.40;76.30
15394;DHT22;7795;47.986;11.868;2023-09-19T08:14:30;21.40;76.10
15394;DHT22;7795;47.986;11.868;2023-09-19T08:16:57;21.50;76.00
15394;DHT22;7795;47.986;11.868;2023-09-19T08:19:24;21.50;75.80
15394;DHT22;7795;47.986;11.868;2023-09-19T08:21:55;21.60;75.70
15394;DHT22;7795;47.986;11.868;2023-09-19T08:24:21;21.60;75.60
15394;DHT22;7795;47.986;11.868;2023-09-19T08:26:46;21.70;75.60
15394;DHT22;7795;47.986;11.868;2023-09-19T08:29:12;21.70;75.10
15394;DHT22;7795;47.986;11.868;2023-09-19T08:31:38;21.80;75.20
15394;DHT22;7795;47.986;11.868;2023-09-19T08:34:04;21.90;74.80
15394;DHT22;7795;47.986;11.868;2023-09-19T08:36:31;21.90;74.60
15394;DHT22;7795;47.986;11.868;2023-09-19T08:38:57;21.90;74.30
15394;DHT22;7795;47.986;11.868;2023-09-19T08:41:23;22.00;74.40
15394;DHT22;7795;47.986;11.868;2023-09-19T08:43:49;22.00;74.00
15394;DHT22;7795;47.986;11.868;2023-09-19T08:46:16;22.00;74.60
15394;DHT22;7795;47.986;11.868;2023-09-19T08:48:46;22.10;74.00
15394;DHT22;7795;47.986;11.868;2023-09-19T08:51:21;22.10;73.80
15394;DHT22;7795;47.986;11.868;2023-09-19T08:53:51;22.10;73.50
15394;DHT22;7795;47.986;11.868;2023-09-19T08:56:21;22.10;73.20
15394;DHT22;7795;47.986;11.868;2023-09-19T08:58:50;22.20;73.40
15394;DHT22;7795;47.986;11.868;2023-09-19T09:01:19;22.20;72.80
15394;DHT22;7795;47.986;11.868;2023-09-19T09:03:51;22.20;73.00
15394;DHT22;7795;47.986;11.868;2023-09-19T09:06:18;22.20;72.70
15394;DHT22;7795;47.986;11.868;2023-09-19T09:08:46;22.30;72.60
15394;DHT22;7795;47.986;11.868;2023-09-19T09:11:15;22.30;72.60
15394;DHT22;7795;47.986;11.868;2023-09-19T09:13:43;22.40;72.10
15394;DHT22;7795;47.986;11.868;2023-09-19T09:16:10;22.40;72.40
15394;DHT22;7795;47.986;11.868;2023-09-19T09:18:36;22.50;71.70
15394;DHT22;7795;47.986;11.868;2023-09-19T09:21:02;22.50;71.70
15394;DHT22;7795;47.986;11.868;2023-09-19T09:23:30;22.60;71.40
15394;DHT22;7795;47.986;11.868;2023-09-19T09:25:58;22.70;71.20
15394;DHT22;7795;47.986;11.868;2023-09-19T09:28:36;22.80;71.10
15394;DHT22;7795;47.986;11.868;2023-09-19T09:31:22;22.90;70.50
15394;DHT22;7795;47.986;11.868;2023-09-19T09:33:52;22.90;69.40
15394;DHT22;7795;47.986;11.868;2023-09-19T09:36:34;23.00;69.50
15394;DHT22;7795;47.986;11.868;2023-09-19T09:39:00;23.10;68.90
15394;DHT22;7795;47.986;11.868;2023-09-19T09:41:41;23.10;70.10
15394;DHT22;7795;47.986;11.868;2023-09-19T09:44:14;23.10;69.70
15394;DHT22;7795;47.986;11.868;2023-09-19T09:46:42;23.20;68.60
15394;DHT22;7795;47.986;11.868;2023-09-19T09:49:23;23.30;69.20
15394;DHT22;7795;47.986;11.868;2023-09-19T09:52:01;23.40;68.40
15394;DHT22;7795;47.986;11.868;2023-09-19T09:54:32;23.40;68.20
15394;DHT22;7795;47.986;11.868;2023-09-19T09:57:07;23.50;68.50
15394;DHT22;7795;47.986;11.868;2023-09-19T09:59:53;23.60;68.00
15394;DHT22;7795;47.986;11.868;2023-09-19T10:02:20;23.70;67.90
15394;DHT22;7795;47.986;11.868;2023-09-19T10:04:52;23.70;67.40
15394;DHT22;7795;47.986;11.868;2023-09-19T10:07:28;23.70;67.40
15394;DHT22;7795;47.986;11.868;2023-09-19T10:09:59;23.80;66.70
15394;DHT22;7795;47.986;11.868;2023-09-19T10:12:32;23.80;66.90
15394;DHT22;7795;47.986;11.868;2023-09-19T10:15:02;23.80;66.40
15394;DHT22;7795;47.986;11.868;2023-09-19T10:17:34;23.80;65.90
15394;DHT22;7795;47.986;11.868;2023-09-19T10:20:02;23.80;65.60
15394;DHT22;7795;47.986;11.868;2023-09-19T10:22:46;23.70;65.50
15394;DHT22;7795;47.986;11.868;2023-09-19T10:25:25;23.70;65.70
15394;DHT22;7795;47.986;11.868;2023-09-19T10:27:52;23.70;65.80
15394;DHT22;7795;47.986;11.868;2023-09-19T10:30:20;23.70;66.00
15394;DHT22;7795;47.986;11.868;2023-09-19T10:32:54;23.80;66.20
15394;DHT22;7795;47.986;11.868;2023-09-19T10:35:22;23.80;65.80
15394;DHT22;7795;47.986;11.868;2023-09-19T10:37:50;23.90;65.50
15394;DHT22;7795;47.986;11.868;2023-09-19T10:40:18;23.90;65.30
15394;DHT22;7795;47.986;11.868;2023-09-19T10:42:46;24.10;65.00
15394;DHT22;7795;47.986;11.868;2023-09-19T10:45:15;24.10;64.60
15394;DHT22;7795;47.986;11.868;2023-09-19T10:47:47;24.20;64.30
15394;DHT22;7795;47.986;11.868;2023-09-19T10:50:19;24.30;64.60
15394;DHT22;7795;47.986;11.868;2023-09-19T10:52:48;24.40;63.80
15394;DHT22;7795;47.986;11.868;2023-09-19T10:55:17;24.50;63.80
15394;DHT22;7795;47.986;11.868;2023-09-19T10:57:44;24.50;63.80
15394;DHT22;7795;47.986;11.868;2023-09-19T11:00:10;24.60;64.20
15394;DHT22;7795;47.986;11.868;2023-09-19T11:03:20;24.60;64.10
15394;DHT22;7795;47.986;11.868;2023-09-19T11:06:01;24.80;62.70
15394;DHT22;7795;47.986;11.868;2023-09-19T11:08:30;24.80;61.70
15394;DHT22;7795;47.986;11.868;2023-09-19T11:10:58;24.90;62.20
15394;DHT22;7795;47.986;11.868;2023-09-19T11:13:25;25.00;61.70
15394;DHT22;7795;47.986;11.868;2023-09-19T11:16:17;25.10;61.70
15394;DHT22;7795;47.986;11.868;2023-09-19T11:18:53;25.10;60.90
15394;DHT22;7795;47.986;11.868;2023-09-19T11:21:38;25.20;60.70
15394;DHT22;7795;47.986;11.868;2023-09-19T11:24:29;25.30;60.20
15394;DHT22;7795;47.986;11.868;2023-09-19T11:27:13;25.30;59.70
15394;DHT22;7795;47.986;11.868;2023-09-19T11:29:40;25.40;59.10
15394;DHT22;7795;47.986;11.868;2023-09-19T11:32:06;25.40;60.00
15394;DHT22;7795;47.986;11.868;2023-09-19T11:34:49;25.40;59.80
15394;DHT22;7795;47.986;11.868;2023-09-19T11:40:37;25.30;58.90
15394;DHT22;7795;47.986;11.868;2023-09-19T11:43:30;25.30;59.60
15394;DHT22;7795;47.986;11.868;2023-09-19T11:46:06;25.30;58.60
15394;DHT22;7795;47.986;11.868;2023-09-19T11:48:33;25.20;58.80
15394;DHT22;7795;47.986;11.868;2023-09-19T11:51:03;25.20;59.50
15394;DHT22;7795;47.986;11.868;2023-09-19T11:53:37;25.10;58.90
15394;DHT22;7795;47.986;11.868;2023-09-19T11:56:06;25.10;59.10
15394;DHT22;7795;47.986;11.868;2023-09-19T11:58:36;25.00;58.80
15394;DHT22;7795;47.986;11.868;2023-09-19T12:01:05;25.00;59.00
15394;DHT22;7795;47.986;11.868;2023-09-19T12:03:36;25.00;58.90
15394;DHT22;7795;47.986;11.868;2023-09-19T12:06:12;25.00;58.30
15394;DHT22;7795;47.986;11.868;2023-09-19T12:08:40;25.00;57.90
15394;DHT22;7795;47.986;11.868;2023-09-19T12:11:12;25.00;58.60
15394;DHT22;7795;47.986;11.868;2023-09-19T12:13:42;25.00;58.60
15394;DHT22;7795;47.986;11.868;2023-09-19T12:16:15;25.00;58.00
15394;DHT22;7795;47.986;11.868;2023-09-19T12:18:41;25.10;57.40
15394;DHT22;7795;47.986;11.868;2023-09-19T12:21:23;25.10;57.70
15394;DHT22;7795;47.986;11.868;2023-09-19T12:24:03;25.10;56.40
15394;DHT22;7795;47.986;11.868;2023-09-19T12:26:39;25.20;56.70
15394;DHT22;7795;47.986;11.868;2023-09-19T12:29:13;25.20;56.70
15394;DHT22;7795;47.986;11.868;2023-09-19T12:31:51;25.20;56.60
15394;DHT22;7795;47.986;11.868;2023-09-19T12:34:19;25.30;55.50
15394;DHT22;7795;47.986;11.868;2023-09-19T12:36:46;25.30;56.90
15394;DHT22;7795;47.986;11.868;2023-09-19T12:39:22;25.30;56.90
15394;DHT22;7795;47.986;11.868;2023-09-19T12:41:49;25.30;55.80
15394;DHT22;7795;47.986;11.868;2023-09-19T12:44:16;25.30;56.90
15394;DHT22;7795;47.986;11.868;2023-09-19T12:46:43;25.40;57.10
15394;DHT22;7795;47.986;11.868;2023-09-19T12:49:17;25.40;57.00
15394;DHT22;7795;47.986;11.868;2023-09-19T12:51:43;25.40;56.20
15394;DHT22;7795;47.986;11.868;2023-09-19T12:54:11;25.40;56.90
15394;DHT22;7795;47.986;11.868;2023-09-19T12:56:40;25.40;56.50
15394;DHT22;7795;47.986;11.868;2023-09-19T12:59:14;25.50;56.50
15394;DHT22;7795;47.986;11.868;2023-09-19T13:01:41;25.50;56.50
15394;DHT22;7795;47.986;11.868;2023-09-19T13:04:14;25.60;56.60
15394;DHT22;7795;47.986;11.868;2023-09-19T13:06:52;25.60;56.30
15394;DHT22;7795;47.986;11.868;2023-09-19T13:09:20;25.60;56.10
15394;DHT22;7795;47.986;11.868;2023-09-19T13:11:47;25.60;55.70
15394;DHT22;7795;47.986;11.868;2023-09-19T13:14:16;25.70;56.00
15394;DHT22;7795;47.986;11.868;2023-09-19T13:16:54;25.70;55.60
15394;DHT22;7795;47.986;11.868;2023-09-19T13:19:36;25.70;55.00
15394;DHT22;7795;47.986;11.868;2023-09-19T13:22:02;25.60;54.60
15394;DHT22;7795;47.986;11.868;2023-09-19T13:24:30;25.70;55.40
15394;DHT22;7795;47.986;11.868;2023-09-19T13:26:56;25.60;55.30
15394;DHT22;7795;47.986;11.868;2023-09-19T13:29:22;25.60;55.60
15394;DHT22;7795;47.986;11.868;2023-09-19T13:31:48;25.70;55.10
15394;DHT22;7795;47.986;11.868;2023-09-19T13:34:15;25.70;55.10
15394;DHT22;7795;47.986;11.868;2023-09-19T13:36:42;25.70;55.00
15394;DHT22;7795;47.986;11.868;2023-09-19T13:39:08;25.70;55.30
15394;DHT22;7795;47.986;11.868;2023-09-19T13:41:40;25.70;54.40
15394;DHT22;7795;47.986;11.868;2023-09-19T13:44:05;25.70;54.20
15394;DHT22;7795;47.986;11.868;2023-09-19T13:46:31;25.70;54.50
15394;DHT22;7795;47.986;11.868;2023-09-19T13:48:58;25.70;54.50
15394;DHT22;7795;47.986;11.868;2023-09-19T13:51:25;25.70;54.70
15394;DHT22;7795;47.986;11.868;2023-09-19T13:53:51;25.70;54.60
15394;DHT22;7795;47.986;11.868;2023-09-19T13:56:17;25.70;54.80
15394;DHT22;7795;47.986;11.868;2023-09-19T13:58:44;25.70;54.40
15394;DHT22;7795;47.986;11.868;2023-09-19T14:01:10;25.70;54.10
15394;DHT22;7795;47.986;11.868;2023-09-19T14:03:38;25.70;53.90
15394;DHT22;7795;47.986;11.868;2023-09-19T14:06:04;25.70;53.90
15394;DHT22;7795;47.986;11.868;2023-09-19T14:08:29;25.70;54.10
15394;DHT22;7795;47.986;11.868;2023-09-19T14:10:56;25.70;54.30
15394;DHT22;7795;47.986;11.868;2023-09-19T14:13:22;25.70;54.40
15394;DHT22;7795;47.986;11.868;2023-09-19T14:15:49;25.70;54.10
15394;DHT22;7795;47.986;11.868;2023-09-19T14:18:14;25.70;54.10
15394;DHT22;7795;47.986;11.868;2023-09-19T14:20:40;25.70;54.20
15394;DHT22;7795;47.986;11.868;2023-09-19T14:23:07;25.80;54.10
15394;DHT22;7795;47.986;11.868;2023-09-19T14:25:34;25.80;54.00
15394;DHT22;7795;47.986;11.868;2023-09-19T14:28:00;25.80;53.70
15394;DHT22;7795;47.986;11.868;2023-09-19T14:30:26;25.80;53.60
15394;DHT22;7795;47.986;11.868;2023-09-19T14:32:54;25.80;53.80
15394;DHT22;7795;47.986;11.868;2023-09-19T14:35:20;25.80;53.70
15394;DHT22;7795;47.986;11.868;2023-09-19T14:37:48;25.80;53.80
15394;DHT22;7795;47.986;11.868;2023-09-19T14:40:14;25.70;53.80
15394;DHT22;7795;47.986;11.868;2023-09-19T14:42:43;25.70;53.80
15394;DHT22;7795;47.986;11.868;2023-09-19T14:45:11;25.70;53.80
15394;DHT22;7795;47.986;11.868;2023-09-19T14:47:37;25.70;53.60
15394;DHT22;7795;47.986;11.868;2023-09-19T14:50:05;25.70;53.70
15394;DHT22;7795;47.986;11.868;2023-09-19T14:52:32;25.70;53.80
15394;DHT22;7795;47.986;11.868;2023-09-19T14:54:59;25.70;54.00
15394;DHT22;7795;47.986;11.868;2023-09-19T14:57:24;25.70;53.90
15394;DHT22;7795;47.986;11.868;2023-09-19T14:59:51;25.70;53.90
15394;DHT22;7795;47.986;11.868;2023-09-19T15:02:17;25.70;53.60
15394;DHT22;7795;47.986;11.868;2023-09-19T15:04:43;25.70;53.90
15394;DHT22;7795;47.986;11.868;2023-09-19T15:07:11;25.70;53.90
15394;DHT22;7795;47.986;11.868;2023-09-19T15:09:37;25.70;54.00
15394;DHT22;7795;47.986;11.868;2023-09-19T15:12:04;25.70;54.00
15394;DHT22;7795;47.986;11.868;2023-09-19T15:14:29;25.80;54.10
15394;DHT22;7795;47.986;11.868;2023-09-19T15:16:55;25.80;54.00
15394;DHT22;7795;47.986;11.868;2023-09-19T15:19:21;25.80;54.00
15394;DHT22;7795;47.986;11.868;2023-09-19T15:21:48;25.80;53.80
15394;DHT22;7795;47.986;11.868;2023-09-19T15:24:15;25.80;53.70
15394;DHT22;7795;47.986;11.868;2023-09-19T15:26:42;25.80;53.70
15394;DHT22;7795;47.986;11.868;2023-09-19T15:29:09;25.80;53.80
15394;DHT22;7795;47.986;11.868;2023-09-19T15:31:35;25.80;53.70
15394;DHT22;7795;47.986;11.868;2023-09-19T15:34:05;25.80;53.60
15394;DHT22;7795;47.986;11.868;2023-09-19T15:36:32;25.80;53.60
15394;DHT22;7795;47.986;11.868;2023-09-19T15:39:00;25.70;53.50
15394;DHT22;7795;47.986;11.868;2023-09-19T15:41:28;25.70;53.40
15394;DHT22;7795;47.986;11.868;2023-09-19T15:43:56;25.60;53.20